Washington, District of Columbia
Traffic Map
Current Weather Conditions
Washington, District of Columbia
Broken Clouds
Broken Clouds
26°
Feels Like: 28°
Wind Chill: 26° Ceiling: 7500
Heat Index: 28° Visibility: 10mi
Dew Point: 23° Wind: 7mph
Humidity: 82% Direction: 360° (N)
Pressure: 29.93in Gusts: 0mph
Raw Report DataKDCA 030652Z 36006KT 10SM BKN075 BKN140 BKN250 26/23 A2993 RMK AO2 SLP136 T02610228
Traffic Incident Summary
Active as of:
Severity:
Category:
InformationThere was an issue retrieving the traffic information for this location. Please try a different location or try again shortly.
Advertisements
Track Severe Weather on mobile